Time;durP1;ratioP1;P1;durP2;ratioP2;P2;SDS_P1;SDS_P2;PMS_P1;PMS_P2;Temp;Humidity;BMP_temperature;BMP_pressure;BME280_temperature;BME280_humidity;BME280_pressure;Samples;Min_cycle;Max_cycle;Signal;HPM_P1;HPM_P2
2022/08/26 00:01:45;;;;;;;14.53;4.40;;;;;;;23.95;33.99;99989.52;125155;1099;104232;-75
2022/08/26 00:04:16;;;;;;;10.07;4.50;;;;;;;23.92;34.43;99987.82;124241;1099;104293;-74
2022/08/26 00:06:48;;;;;;;6.87;4.20;;;;;;;23.88;34.11;99975.42;124724;1099;104239;-74
2022/08/26 00:09:19;;;;;;;12.00;4.10;;;;;;;23.84;34.78;99976.41;124210;1099;104157;-74
2022/08/26 00:11:51;;;;;;;9.23;4.57;;;;;;;23.80;34.59;99980.08;124679;1099;104114;-74
2022/08/26 00:14:23;;;;;;;10.17;4.73;;;;;;;23.74;34.65;99975.76;124209;1099;104217;-74
2022/08/26 00:16:55;;;;;;;9.63;4.17;;;;;;;23.68;34.87;99979.50;124766;1099;104153;-74
2022/08/26 00:19:26;;;;;;;9.60;4.47;;;;;;;23.65;35.18;99978.68;124673;1099;104249;-76
2022/08/26 00:21:57;;;;;;;11.87;4.60;;;;;;;23.60;35.54;99975.25;124682;1099;102874;-76
2022/08/26 00:24:29;;;;;;;10.10;4.00;;;;;;;23.55;35.30;99966.47;125913;1098;104163;-77
2022/08/26 00:27:00;;;;;;;11.33;3.90;;;;;;;23.50;36.09;99970.14;124735;1099;102448;-77
2022/08/26 00:29:33;;;;;;;11.77;4.37;;;;;;;23.48;35.85;99976.44;124722;1099;104256;-77
2022/08/26 00:32:05;;;;;;;10.20;4.20;;;;;;;23.43;36.26;99967.66;124473;1099;104589;-77
2022/08/26 00:34:36;;;;;;;9.00;3.90;;;;;;;23.40;36.14;99967.73;124727;1099;102768;-76
2022/08/26 00:37:08;;;;;;;13.57;4.37;;;;;;;23.39;36.43;99972.22;124759;1099;101963;-76
2022/08/26 00:39:42;;;;;;;13.70;4.30;;;;;;;23.37;36.33;99975.84;124745;1099;104232;-76
2022/08/26 00:42:13;;;;;;;10.77;4.10;;;;;;;23.32;36.40;99959.91;124490;1099;102590;-77
2022/08/26 00:44:44;;;;;;;9.57;4.33;;;;;;;23.29;36.37;99960.84;124755;1099;104188;-76
2022/08/26 00:47:28;;;;;;;9.33;4.27;;;;;;;23.26;36.38;99966.27;124647;1099;102248;-76
2022/08/26 00:50:04;;;;;;;9.43;4.00;;;;;;;23.25;37.05;99974.34;124712;1099;104274;-76
2022/08/26 00:52:39;;;;;;;17.50;5.10;;;;;;;23.16;36.77;99959.41;124662;1099;104242;-76
2022/08/26 00:55:16;;;;;;;10.33;4.00;;;;;;;23.18;37.34;99970.95;124750;1099;104166;-76
2022/08/26 00:57:49;;;;;;;12.40;4.30;;;;;;;23.13;37.17;99970.20;124769;1099;102145;-76
2022/08/26 01:00:23;;;;;;;13.13;4.70;;;;;;;23.08;37.53;99967.62;124715;1099;104096;-75
2022/08/26 01:02:55;;;;;;;10.17;4.03;;;;;;;23.02;37.11;99962.39;124677;1099;103574;-76
2022/08/26 01:05:27;;;;;;;9.97;4.33;;;;;;;22.97;37.57;99965.17;124699;1098;102784;-76
2022/08/26 01:07:58;;;;;;;15.40;4.33;;;;;;;22.94;38.20;99967.05;124750;1099;102798;-77
2022/08/26 01:10:31;;;;;;;10.10;4.57;;;;;;;22.91;37.90;99969.80;124588;1099;104162;-77
2022/08/26 01:13:09;;;;;;;13.93;4.67;;;;;;;22.85;37.71;99967.27;124732;1099;104229;-76
2022/08/26 01:15:44;;;;;;;11.13;4.30;;;;;;;22.81;38.30;99969.11;124763;1099;104242;-77
2022/08/26 01:18:17;;;;;;;13.73;4.37;;;;;;;22.77;38.07;99962.09;124797;1099;104153;-76
2022/08/26 01:20:56;;;;;;;9.90;4.27;;;;;;;22.74;38.59;99970.19;124724;1098;102786;-76
2022/08/26 01:23:29;;;;;;;9.80;4.10;;;;;;;22.71;37.66;99959.56;124729;1099;103306;-76
2022/08/26 01:26:04;;;;;;;10.05;4.30;;;;;;;22.69;38.11;99962.27;124712;1098;102781;-76
2022/08/26 01:28:39;;;;;;;9.47;4.10;;;;;;;22.66;38.54;99959.67;124737;1099;104223;-76
2022/08/26 01:31:13;;;;;;;10.83;4.37;;;;;;;22.66;38.62;99953.42;124772;1099;104188;-76
2022/08/26 01:33:50;;;;;;;9.97;4.33;;;;;;;22.64;38.85;99960.60;124717;1099;104232;-76
2022/08/26 01:36:23;;;;;;;16.73;4.40;;;;;;;22.57;38.60;99963.41;124679;1099;104160;-76
2022/08/26 01:38:54;;;;;;;13.93;4.70;;;;;;;22.53;38.75;99959.07;124712;1099;105029;-76
2022/08/26 01:41:27;;;;;;;9.70;4.40;;;;;;;22.49;38.87;99964.52;124719;1099;104256;-76
2022/08/26 01:43:59;;;;;;;9.38;4.83;;;;;;;22.43;39.23;99966.39;124625;1099;104249;-77
2022/08/26 01:46:32;;;;;;;9.13;4.40;;;;;;;22.40;39.72;99954.89;124746;1099;104201;-76
2022/08/26 01:49:06;;;;;;;13.30;4.73;;;;;;;22.38;39.80;99967.42;124717;1099;104251;-76
2022/08/26 01:51:43;;;;;;;9.30;4.43;;;;;;;22.32;39.05;99959.53;124691;1099;104361;-76
2022/08/26 01:54:14;;;;;;;10.93;4.50;;;;;;;22.28;40.09;99955.98;124597;1099;102820;-76
2022/08/26 01:56:48;;;;;;;11.67;4.90;;;;;;;22.26;40.10;99960.50;124733;1099;103209;-77
2022/08/26 01:59:21;;;;;;;13.67;4.90;;;;;;;22.23;40.34;99957.89;124738;1099;104159;-77
2022/08/26 02:01:52;;;;;;;14.33;5.10;;;;;;;22.20;39.51;99953.48;124710;1099;102781;-77
2022/08/26 02:04:28;;;;;;;12.30;4.40;;;;;;;22.19;40.28;99950.84;124688;1099;104054;-77
2022/08/26 02:07:02;;;;;;;13.37;4.73;;;;;;;22.15;40.10;99950.03;124750;1099;104044;-77
2022/08/26 02:09:37;;;;;;;14.67;4.30;;;;;;;22.13;40.03;99943.84;124264;1099;104239;-77
2022/08/26 02:12:10;;;;;;;8.30;4.43;;;;;;;22.10;40.89;99938.56;124663;1099;104242;-78
2022/08/26 02:14:45;;;;;;;12.17;4.70;;;;;;;22.08;40.89;99943.08;124720;1099;104166;-77
2022/08/26 02:17:17;;;;;;;9.37;4.47;;;;;;;22.04;40.79;99941.36;124665;1099;102788;-77
2022/08/26 02:19:49;;;;;;;12.93;4.70;;;;;;;22.01;41.00;99947.64;124286;1099;104389;-77
2022/08/26 02:22:23;;;;;;;10.33;4.70;;;;;;;21.98;40.98;99941.48;124709;1099;104235;-78
2022/08/26 02:24:56;;;;;;;12.80;4.80;;;;;;;21.94;41.13;99939.78;124158;1099;104169;-77
2022/08/26 02:27:32;;;;;;;13.47;4.63;;;;;;;21.92;41.58;99941.61;124763;1098;103013;-77
2022/08/26 02:30:10;;;;;;;14.97;5.00;;;;;;;21.83;41.35;99934.64;124649;1099;104188;-77
2022/08/26 02:32:42;;;;;;;11.57;4.43;;;;;;;21.78;41.28;99941.88;124690;1099;104322;-77
2022/08/26 02:35:15;;;;;;;12.50;4.77;;;;;;;21.72;41.88;99948.20;124755;1098;102810;-77
2022/08/26 02:37:47;;;;;;;13.58;4.83;;;;;;;21.70;41.73;99945.56;124692;1099;104191;-78
2022/08/26 02:40:21;;;;;;;11.97;4.73;;;;;;;21.69;41.50;99942.92;124701;1099;104150;-77
2022/08/26 02:42:52;;;;;;;11.77;4.40;;;;;;;21.65;41.43;99943.91;124740;1099;102880;-77
2022/08/26 02:45:25;;;;;;;10.93;4.33;;;;;;;21.62;41.55;99951.97;124329;1099;104264;-77
2022/08/26 02:47:57;;;;;;;12.67;4.63;;;;;;;21.57;42.34;99954.73;124735;1099;102778;-77
2022/08/26 02:50:28;;;;;;;13.93;4.67;;;;;;;21.50;42.51;99951.30;124753;1099;102772;-77
2022/08/26 02:53:00;;;;;;;10.80;4.57;;;;;;;21.45;42.72;99955.78;125603;1099;104242;-77
2022/08/26 02:55:31;;;;;;;11.87;5.07;;;;;;;21.43;42.78;99949.59;124734;1099;104224;-76
2022/08/26 02:58:02;;;;;;;13.40;4.73;;;;;;;21.39;42.61;99955.89;124761;1099;102909;-76
2022/08/26 03:00:35;;;;;;;10.47;4.93;;;;;;;21.37;42.86;99947.03;124751;1099;104634;-77
2022/08/26 03:03:07;;;;;;;12.73;4.67;;;;;;;21.35;43.16;99954.20;124691;1099;104233;-77
2022/08/26 03:05:38;;;;;;;17.80;5.03;;;;;;;21.32;42.71;99959.59;124737;1099;102445;-77
2022/08/26 03:08:10;;;;;;;9.83;4.53;;;;;;;21.29;43.34;99957.84;124745;1099;104239;-77
2022/08/26 03:10:43;;;;;;;14.65;4.92;;;;;;;21.27;43.21;99956.09;124751;1099;104220;-77
2022/08/26 03:13:14;;;;;;;11.93;5.23;;;;;;;21.24;43.54;99951.71;124756;1099;104221;-77
2022/08/26 03:15:45;;;;;;;13.50;5.10;;;;;;;21.23;43.04;99955.27;124764;1099;104235;-77
2022/08/26 03:18:16;;;;;;;12.73;4.80;;;;;;;21.18;43.33;99952.68;124690;1098;102762;-77
2022/08/26 03:20:48;;;;;;;14.00;5.13;;;;;;;21.17;43.10;99950.91;124746;1099;104229;-77
2022/08/26 03:23:19;;;;;;;17.37;5.60;;;;;;;21.18;43.28;99958.02;124680;1099;102775;-77
2022/08/26 03:25:52;;;;;;;15.57;4.60;;;;;;;21.19;43.10;99953.55;124711;1099;104169;-77
2022/08/26 03:28:23;;;;;;;14.33;5.22;;;;;;;21.17;43.99;99956.25;124779;1099;102739;-77
2022/08/26 03:30:57;;;;;;;17.67;5.57;;;;;;;21.15;43.48;99950.06;124740;1099;102216;-78
2022/08/26 03:33:29;;;;;;;16.27;5.10;;;;;;;21.15;43.92;99949.20;124652;1099;104438;-77
2022/08/26 03:36:02;;;;;;;17.07;5.37;;;;;;;21.15;43.83;99958.06;124191;1099;104390;-78
2022/08/26 03:38:32;;;;;;;;;;;;;;;21.13;43.13;99951.89;124797;1099;101896;-77
2022/08/26 03:41:03;;;;;;;13.90;4.80;;;;;;;21.13;43.53;99964.33;124763;1099;104232;-77
2022/08/26 03:43:34;;;;;;;16.93;4.83;;;;;;;21.15;43.92;99960.73;124695;1099;102916;-77
2022/08/26 03:46:09;;;;;;;15.40;5.33;;;;;;;21.15;43.48;99963.41;124179;1099;104398;-77
2022/08/26 03:48:40;;;;;;;14.27;5.10;;;;;;;21.14;44.29;99958.96;124784;1099;102836;-77
2022/08/26 03:51:16;;;;;;;14.60;5.23;;;;;;;21.14;43.45;99961.63;124378;1099;104159;-77
2022/08/26 03:53:48;;;;;;;16.10;5.40;;;;;;;21.12;44.04;99958.12;124741;1099;104232;-77
2022/08/26 03:56:19;;;;;;;12.10;5.03;;;;;;;21.12;43.51;99957.25;124765;1099;102759;-77
2022/08/26 03:58:51;;;;;;;17.00;5.30;;;;;;;21.11;44.21;99952.80;124794;1099;104677;-77
2022/08/26 04:01:22;;;;;;;15.10;5.10;;;;;;;21.11;44.71;99956.34;124695;1099;104274;-77
2022/08/26 04:04:00;;;;;;;13.53;5.43;;;;;;;21.12;43.86;99959.91;124726;1099;104211;-77
2022/08/26 04:06:34;;;;;;;13.17;5.00;;;;;;;21.13;44.28;99961.66;126001;1098;104220;-78
2022/08/26 04:09:08;;;;;;;13.83;5.10;;;;;;;21.14;43.32;99960.77;124713;1099;104201;-77
2022/08/26 04:11:40;;;;;;;17.10;5.43;;;;;;;21.16;43.75;99966.94;124778;1099;104332;-77
2022/08/26 04:14:15;;;;;;;13.40;5.17;;;;;;;21.17;44.30;99955.37;124306;1099;104284;-77
2022/08/26 04:16:46;;;;;;;15.33;5.70;;;;;;;21.17;44.39;99961.58;124749;1099;104207;-76
2022/08/26 04:19:19;;;;;;;14.50;5.23;;;;;;;21.18;43.73;99968.69;124716;1099;104188;-76
2022/08/26 04:21:51;;;;;;;16.03;5.47;;;;;;;21.17;43.92;99961.58;124736;1099;104195;-77
2022/08/26 04:24:24;;;;;;;12.37;5.30;;;;;;;21.18;43.56;99960.69;124270;1100;104182;-76
2022/08/26 04:26:58;;;;;;;18.20;5.20;;;;;;;21.21;44.42;99956.20;124684;1099;104124;-77
2022/08/26 04:29:29;;;;;;;16.33;5.30;;;;;;;21.20;44.72;99963.33;124674;1099;104229;-76
2022/08/26 04:32:01;;;;;;;16.83;5.60;;;;;;;21.22;44.08;99968.64;124714;1099;104319;-76
2022/08/26 04:34:33;;;;;;;20.40;5.33;;;;;;;21.23;43.53;99965.95;124222;1099;104186;-76
2022/08/26 04:37:05;;;;;;;19.70;6.60;;;;;;;21.27;44.08;99956.09;124629;1099;104188;-77
2022/08/26 04:39:37;;;;;;;18.13;5.40;;;;;;;21.28;44.72;99963.20;124714;1099;104172;-76
2022/08/26 04:42:08;;;;;;;20.00;5.33;;;;;;;21.29;43.74;99971.18;124691;1099;104187;-76
2022/08/26 04:44:40;;;;;;;17.30;5.70;;;;;;;21.33;43.99;99980.91;124708;1099;104232;-77
2022/08/26 04:47:11;;;;;;;16.60;5.73;;;;;;;21.38;44.19;99980.83;124663;1098;102784;-76
2022/08/26 04:49:44;;;;;;;18.93;5.70;;;;;;;21.41;44.46;99980.78;124683;1099;104504;-77
2022/08/26 04:52:17;;;;;;;19.90;5.27;;;;;;;21.44;44.20;99980.73;124727;1099;102817;-76
2022/08/26 04:54:49;;;;;;;18.90;5.53;;;;;;;21.46;44.15;99984.23;124712;1099;104264;-76
2022/08/26 04:57:22;;;;;;;17.85;6.00;;;;;;;21.49;44.07;99983.35;124738;1099;102159;-75
2022/08/26 04:59:53;;;;;;;18.10;5.90;;;;;;;21.52;44.05;99986.84;124279;1099;104293;-74
2022/08/26 05:02:24;;;;;;;22.17;5.57;;;;;;;21.56;43.33;99987.66;124713;1099;102274;-74
2022/08/26 05:04:55;;;;;;;19.63;5.67;;;;;;;21.59;43.82;99989.40;124724;1099;104345;-74
2022/08/26 05:07:27;;;;;;;17.53;6.33;;;;;;;21.61;43.87;99992.91;124636;1099;104166;-76
2022/08/26 05:09:59;;;;;;;24.07;5.90;;;;;;;21.65;44.31;99995.50;124775;1099;104201;-76
2022/08/26 05:12:31;;;;;;;18.67;6.57;;;;;;;21.65;43.90;99991.96;124709;1099;104159;-76
2022/08/26 05:15:02;;;;;;;14.83;5.40;;;;;;;21.68;44.04;99989.23;124671;1099;104431;-75
2022/08/26 05:17:38;;;;;;;19.45;7.03;;;;;;;21.71;44.01;99986.52;124315;1099;102798;-75
2022/08/26 05:20:10;;;;;;;22.63;6.03;;;;;;;21.76;44.15;99991.77;124243;1099;104223;-75
2022/08/26 05:22:45;;;;;;;22.75;6.40;;;;;;;21.79;44.78;99991.72;124327;1099;104147;-75
2022/08/26 05:25:18;;;;;;;17.03;5.73;;;;;;;21.78;44.03;99984.59;124736;1099;102874;-76
2022/08/26 05:27:52;;;;;;;22.82;6.85;;;;;;;21.83;44.56;99988.95;125847;1098;102758;-77
2022/08/26 05:30:25;;;;;;;19.03;6.30;;;;;;;21.87;44.16;99985.30;124764;1099;104325;-76
2022/08/26 05:32:56;;;;;;;22.30;6.20;;;;;;;21.90;43.77;99995.92;124814;1099;104287;-78
2022/08/26 05:35:32;;;;;;;20.33;5.70;;;;;;;21.96;43.65;99997.61;126481;1098;102120;-77
2022/08/26 05:38:06;;;;;;;19.93;5.77;;;;;;;21.98;44.76;99992.23;124304;1099;104176;-77
2022/08/26 05:40:36;;;;;;;;;;;;;;;21.98;43.69;99989.56;124431;1102;104166;-78
2022/08/26 05:43:09;;;;;;;21.60;5.70;;;;;;;22.00;44.29;99990.41;125176;1099;102810;-78
2022/08/26 05:45:47;;;;;;;20.37;6.00;;;;;;;22.05;43.81;100000.11;125212;1099;104278;-78
2022/08/26 05:48:28;;;;;;;22.27;5.87;;;;;;;22.11;44.18;99998.22;125047;1099;104172;-78
2022/08/26 05:51:04;;;;;;;23.73;6.93;;;;;;;22.14;44.00;99993.67;124409;1100;103605;-77
2022/08/26 05:53:39;;;;;;;22.13;5.90;;;;;;;22.16;43.67;99986.53;125537;1099;104235;-77
2022/08/26 05:56:12;;;;;;;24.63;6.37;;;;;;;22.20;44.18;99992.69;125615;1099;104267;-78
2022/08/26 05:58:56;;;;;;;20.70;6.63;;;;;;;22.21;44.31;99995.33;125563;1099;104194;-77
2022/08/26 06:01:29;;;;;;;23.97;6.70;;;;;;;22.26;44.04;99998.78;124364;1102;102868;-77
2022/08/26 06:04:04;;;;;;;18.13;6.00;;;;;;;22.32;43.61;99996.95;124761;1099;104223;-77
2022/08/26 06:06:42;;;;;;;16.97;5.80;;;;;;;22.37;43.40;99989.70;124727;1099;104162;-77
2022/08/26 06:09:44;;;;;;;20.57;6.03;;;;;;;22.44;43.32;99989.55;125382;1098;104188;-76
2022/08/26 06:12:20;;;;;;;19.40;6.00;;;;;;;22.53;43.05;99996.50;125554;1098;104166;-76
2022/08/26 06:15:05;;;;;;;15.93;6.20;;;;;;;22.59;43.55;99996.37;125557;1099;104192;-76
2022/08/26 06:17:37;;;;;;;21.80;6.50;;;;;;;22.64;42.77;100003.39;125595;1099;104235;-77
2022/08/26 06:20:15;;;;;;;23.13;6.30;;;;;;;22.72;43.82;99998.74;124918;1102;102389;-75
2022/08/26 06:25:42;;;;;;;20.10;6.23;;;;;;;22.97;43.17;99999.95;125609;1099;104534;-75
2022/08/26 06:28:16;;;;;;;17.00;6.47;;;;;;;23.06;43.22;100000.64;125664;1099;104159;-78
2022/08/26 06:30:47;;;;;;;17.07;6.20;;;;;;;23.13;42.40;99999.63;124737;1099;104383;-76
2022/08/26 06:33:31;;;;;;;21.50;5.83;;;;;;;23.20;42.54;99998.55;124285;1102;104313;-77
2022/08/26 06:36:02;;;;;;;21.07;6.20;;;;;;;23.29;42.77;100001.00;125115;1102;104204;-77
2022/08/26 06:38:38;;;;;;;20.07;5.83;;;;;;;23.37;42.13;100006.16;124274;1102;102862;-76
2022/08/26 06:41:13;;;;;;;20.50;6.23;;;;;;;23.40;42.02;100005.22;124495;1102;104203;-76
2022/08/26 06:43:50;;;;;;;18.43;5.80;;;;;;;23.39;42.38;99999.00;124421;1101;104207;-78
2022/08/26 06:46:23;;;;;;;25.00;6.50;;;;;;;23.49;41.92;100000.50;124375;1102;104189;-77
2022/08/26 06:48:57;;;;;;;28.12;6.67;;;;;;;23.55;41.94;99991.44;124966;1099;104165;-77
2022/08/26 06:51:45;;;;;;;17.57;6.97;;;;;;;23.60;41.76;99994.00;124970;1099;104198;-77
2022/08/26 06:54:26;;;;;;;20.37;7.20;;;;;;;23.78;41.93;99996.20;125071;1100;101796;-77
2022/08/26 06:57:08;;;;;;;25.03;6.60;;;;;;;23.88;41.97;99991.49;125011;1099;104201;-77
2022/08/26 06:59:41;;;;;;;19.20;6.87;;;;;;;23.98;41.65;99993.02;124947;1099;104322;-77
2022/08/26 07:02:38;;;;;;;16.43;6.03;;;;;;;24.07;41.46;99999.03;124949;1099;102714;-78
2022/08/26 07:05:14;;;;;;;22.80;5.97;;;;;;;24.25;40.95;99997.61;125005;1099;102636;-78
2022/08/26 07:07:48;;;;;;;16.80;6.03;;;;;;;24.40;41.08;99989.12;125015;1098;102082;-77
2022/08/26 07:10:29;;;;;;;20.67;6.70;;;;;;;24.51;40.93;99988.80;125552;1102;104192;-77
2022/08/26 07:13:18;;;;;;;20.43;6.40;;;;;;;24.69;40.80;99990.97;124922;1099;104399;-77
2022/08/26 07:15:55;;;;;;;17.57;6.43;;;;;;;24.88;41.14;99974.30;124936;1098;104258;-77
2022/08/26 07:18:27;;;;;;;16.80;5.63;;;;;;;25.08;40.68;99976.34;124967;1099;104265;-77
2022/08/26 07:21:10;;;;;;;25.40;7.10;;;;;;;25.21;39.96;99971.44;125013;1099;104593;-77
2022/08/26 07:23:55;;;;;;;22.10;6.13;;;;;;;25.40;39.82;99974.41;125092;1099;118562;-78
2022/08/26 07:26:31;;;;;;;30.83;6.47;;;;;;;25.59;39.77;99962.12;124318;1099;104804;-78
2022/08/26 07:29:15;;;;;;;22.00;6.20;;;;;;;25.77;39.51;99965.08;124909;1099;104259;-77
2022/08/26 07:32:01;;;;;;;20.83;6.77;;;;;;;25.89;39.05;99967.33;125053;1099;102236;-78
2022/08/26 07:34:44;;;;;;;20.67;6.17;;;;;;;26.01;37.82;99961.54;125628;1099;104255;-77
2022/08/26 07:37:24;;;;;;;21.97;6.00;;;;;;;26.13;37.76;99968.28;125561;1099;104223;-78
2022/08/26 07:40:04;;;;;;;18.27;5.90;;;;;;;26.25;37.44;99958.00;125561;1099;104229;-78
2022/08/26 07:42:42;;;;;;;17.80;6.27;;;;;;;26.37;37.25;99962.91;125519;1099;104083;-78
2022/08/26 07:45:16;;;;;;;22.60;5.87;;;;;;;26.50;37.82;99955.23;126463;1098;104182;-78
2022/08/26 07:48:11;;;;;;;22.97;6.23;;;;;;;26.59;37.04;99946.81;125188;1102;104251;-78
2022/08/26 07:50:44;;;;;;;23.57;5.87;;;;;;;26.71;36.83;99954.43;125609;1099;104235;-78
2022/08/26 07:53:18;;;;;;;19.00;6.10;;;;;;;26.78;36.56;99951.50;125104;1099;102425;-78
2022/08/26 07:55:57;;;;;;;23.50;5.90;;;;;;;26.85;36.51;99948.50;125674;1099;104198;-76
2022/08/26 07:58:30;;;;;;;24.07;6.27;;;;;;;26.96;36.54;99949.86;124419;1099;102190;-78
2022/08/26 08:01:06;;;;;;;31.15;6.58;;;;;;;27.01;36.56;99940.66;125748;1099;104160;-78
2022/08/26 08:04:14;;;;;;;20.65;6.40;;;;;;;27.09;35.93;99943.91;126398;1098;101901;-77
2022/08/26 08:06:50;;;;;;;21.80;6.37;;;;;;;27.12;35.85;99940.22;124972;1099;104334;-79
2022/08/26 08:09:24;;;;;;;24.47;6.90;;;;;;;27.24;36.17;99936.15;125100;1102;102213;-78
2022/08/26 08:12:08;;;;;;;24.57;6.43;;;;;;;27.37;35.75;99932.00;125617;1099;102274;-77
2022/08/26 08:14:45;;;;;;;24.13;6.37;;;;;;;27.40;35.69;99937.26;125592;1099;104172;-77
2022/08/26 08:17:25;;;;;;;29.60;6.00;;;;;;;27.41;35.31;99922.86;125005;1099;104405;-77
2022/08/26 08:20:08;;;;;;;18.13;6.03;;;;;;;27.49;35.06;99930.61;125506;1098;104169;-76
2022/08/26 08:22:45;;;;;;;24.20;6.80;;;;;;;27.56;35.20;99928.52;125611;1099;104184;-77
2022/08/26 08:25:17;;;;;;;25.40;6.47;;;;;;;27.61;34.99;99929.17;124779;1099;104172;-77
2022/08/26 08:27:51;;;;;;;23.63;6.60;;;;;;;27.68;35.35;99922.59;124443;1099;104173;-77
2022/08/26 08:30:27;;;;;;;26.27;6.10;;;;;;;27.76;34.81;99916.85;124787;1098;104306;-76
2022/08/26 08:33:03;;;;;;;31.67;7.50;;;;;;;27.84;34.79;99928.16;125007;1099;104175;-77
2022/08/26 08:35:41;;;;;;;26.07;6.83;;;;;;;27.96;34.56;99924.08;124704;1099;104197;-76
2022/08/26 08:38:13;;;;;;;27.87;6.73;;;;;;;28.08;34.82;99923.52;124759;1099;104204;-76
2022/08/26 08:40:47;;;;;;;27.33;6.53;;;;;;;28.15;33.91;99916.00;124800;1099;104211;-77
2022/08/26 08:43:31;;;;;;;27.47;6.70;;;;;;;28.21;34.51;99918.42;124847;1099;104166;-78
2022/08/26 08:46:05;;;;;;;;;;;;;;;28.30;33.59;99920.69;124874;1099;109066;-78
2022/08/26 08:48:46;;;;;;;27.17;6.50;;;;;;;28.37;34.14;99915.00;124269;1102;104206;-78
2022/08/26 08:51:27;;;;;;;24.10;6.73;;;;;;;28.48;33.65;99909.95;125090;1102;102145;-77
2022/08/26 08:54:03;;;;;;;27.17;7.20;;;;;;;28.58;33.25;99904.98;125577;1099;104188;-77
2022/08/26 08:56:34;;;;;;;;;;;;;;;28.67;33.57;99908.16;125093;1099;118851;-77
2022/08/26 08:59:15;;;;;;;25.20;6.60;;;;;;;28.72;33.41;99907.05;125626;1099;104163;-77
2022/08/26 09:02:05;;;;;;;26.93;6.80;;;;;;;28.78;33.33;99904.94;125085;1099;102774;-76
2022/08/26 09:05:03;;;;;;;35.23;6.80;;;;;;;28.84;33.12;99899.23;124639;1099;104205;-77
2022/08/26 09:07:38;;;;;;;30.70;6.90;;;;;;;28.99;32.96;99896.72;124729;1099;103572;-76
2022/08/26 09:10:30;;;;;;;31.10;7.35;;;;;;;29.16;32.90;99895.86;124798;1099;104258;-76
2022/08/26 09:13:06;;;;;;;34.25;8.10;;;;;;;29.28;32.95;99902.48;124717;1099;104217;-76
2022/08/26 09:15:52;;;;;;;33.80;7.87;;;;;;;29.36;33.01;99893.03;124637;1099;103217;-76
2022/08/26 09:18:33;;;;;;;35.60;7.03;;;;;;;29.44;32.78;99900.73;124635;1099;104261;-76
2022/08/26 09:21:09;;;;;;;32.23;6.73;;;;;;;29.42;32.48;99890.95;124781;1098;104633;-77
2022/08/26 09:23:43;;;;;;;30.83;7.53;;;;;;;29.34;32.24;99899.45;124803;1099;104229;-76
2022/08/26 09:29:26;;;;;;;25.07;6.73;;;;;;;29.31;32.53;99878.00;124539;1102;102739;-76
2022/08/26 09:32:19;;;;;;;35.30;7.40;;;;;;;29.30;32.64;99879.84;125000;1099;104360;-76
2022/08/26 09:34:59;;;;;;;30.53;7.57;;;;;;;29.33;32.19;99874.27;125216;1099;104332;-75
2022/08/26 09:37:41;;;;;;;31.60;7.50;;;;;;;29.36;32.45;99878.66;124444;1099;118818;-76
2022/08/26 09:40:29;;;;;;;31.33;7.07;;;;;;;29.40;32.02;99873.02;124388;1099;104333;-75
2022/08/26 09:43:18;;;;;;;31.43;7.07;;;;;;;29.44;32.22;99868.31;124401;1098;104195;-75
2022/08/26 09:45:55;;;;;;;42.87;7.60;;;;;;;29.52;31.98;99867.91;124403;1099;104236;-76
2022/08/26 09:48:34;;;;;;;30.57;7.83;;;;;;;29.58;32.11;99865.74;124358;1099;104149;-75
2022/08/26 09:51:30;;;;;;;30.67;6.33;;;;;;;29.65;32.15;99877.09;124250;1099;104185;-76
2022/08/26 09:54:05;;;;;;;37.73;7.20;;;;;;;29.65;31.99;99868.98;124226;1099;103244;-76
2022/08/26 09:56:40;;;;;;;33.47;7.57;;;;;;;29.62;31.70;99873.69;124355;1099;104044;-77
2022/08/26 09:59:13;;;;;;;37.30;7.87;;;;;;;29.60;31.75;99873.77;124305;1099;104198;-76
2022/08/26 10:01:46;;;;;;;32.50;7.63;;;;;;;29.63;31.34;99867.34;124272;1099;102436;-76
2022/08/26 10:04:21;;;;;;;;;;;;;;;29.70;31.69;99869.63;124325;1099;102527;-76
2022/08/26 10:07:00;;;;;;;33.23;7.60;;;;;;;29.78;31.68;99868.32;124294;1099;104213;-76
2022/08/26 10:09:39;;;;;;;40.10;6.80;;;;;;;29.92;31.59;99866.66;124284;1099;104759;-76
2022/08/26 10:12:15;;;;;;;29.57;8.17;;;;;;;30.05;31.58;99863.28;124283;1098;102787;-76
2022/08/26 10:14:51;;;;;;;37.57;7.33;;;;;;;30.19;31.43;99866.08;124290;1102;104172;-76
2022/08/26 10:17:30;;;;;;;46.87;7.60;;;;;;;30.26;31.01;99864.78;124292;1099;103213;-76
2022/08/26 10:20:09;;;;;;;30.57;7.07;;;;;;;30.38;31.00;99867.75;124280;1099;104242;-76
2022/08/26 10:22:49;;;;;;;40.27;7.73;;;;;;;30.51;30.92;99854.41;124321;1099;104182;-76
2022/08/26 10:25:29;;;;;;;35.60;7.15;;;;;;;30.69;31.07;99861.47;124298;1099;104243;-76
2022/08/26 10:28:07;;;;;;;34.10;7.23;;;;;;;30.82;30.82;99867.03;124313;1099;104188;-76
2022/08/26 10:30:45;;;;;;;33.83;7.73;;;;;;;30.96;31.01;99856.28;124249;1102;104329;-75
2022/08/26 10:33:21;;;;;;;43.53;7.30;;;;;;;31.07;30.53;99861.09;124242;1099;104397;-77
2022/08/26 10:35:56;;;;;;;53.00;7.97;;;;;;;31.19;30.39;99865.75;124311;1099;104120;-76
2022/08/26 10:38:34;;;;;;;41.87;7.77;;;;;;;31.23;30.07;99858.33;124694;1099;102367;-76
2022/08/26 10:41:11;;;;;;;48.67;8.83;;;;;;;31.32;29.91;99865.01;124797;1099;104201;-76
2022/08/26 10:43:49;;;;;;;47.63;8.33;;;;;;;31.33;29.68;99861.34;124820;1099;102150;-76
2022/08/26 10:46:27;;;;;;;54.37;9.27;;;;;;;31.36;29.58;99861.16;125973;1098;102253;-76
2022/08/26 10:49:14;;;;;;;52.90;8.43;;;;;;;31.45;29.99;99862.44;125271;1099;104195;-76
2022/08/26 10:51:56;;;;;;;44.57;8.93;;;;;;;31.50;29.24;99861.17;124917;1099;104174;-75
2022/08/26 10:54:38;;;;;;;49.43;9.30;;;;;;;31.48;29.27;99856.83;124378;1099;102035;-75
2022/08/26 10:57:25;;;;;;;45.23;8.80;;;;;;;31.49;29.41;99861.27;124423;1099;104184;-75
2022/08/26 11:01:40;;;;;;;49.67;9.30;;;;;;;31.53;29.14;99861.02;124778;1099;103564;-75
2022/08/26 11:03:26;;;;;;;48.43;10.23;;;;;;;31.57;29.11;99855.41;124849;1099;104166;-75
2022/08/26 11:06:31;;;;;;;49.97;9.07;;;;;;;31.67;29.18;99848.45;125304;1099;104080;-77
2022/08/26 11:09:07;;;;;;;59.87;9.53;;;;;;;31.80;28.85;99846.69;125032;1099;104332;-76
2022/08/26 11:11:56;;;;;;;57.87;9.70;;;;;;;31.90;28.88;99855.14;124346;1099;102166;-76
2022/08/26 11:14:36;;;;;;;52.33;9.40;;;;;;;31.85;27.45;99854.54;124261;1099;104313;-76
2022/08/26 11:17:11;;;;;;;48.25;9.15;;;;;;;31.88;28.33;99849.81;125710;1100;103475;-76
2022/08/26 11:20:04;;;;;;;61.33;10.73;;;;;;;31.98;28.43;99852.80;124343;1102;111264;-76
2022/08/26 11:22:37;;;;;;;54.77;9.60;;;;;;;32.07;28.37;99846.79;124385;1099;104210;-75
2022/08/26 11:25:08;;;;;;;;;;;;;;;32.03;27.96;99850.66;124874;1099;102749;-75
2022/08/26 11:28:05;;;;;;;59.43;9.07;;;;;;;31.81;27.47;99851.16;124668;1099;104190;-76
2022/08/26 11:30:42;;;;;;;63.33;8.97;;;;;;;31.82;27.93;99847.48;124270;1099;104235;-76
2022/08/26 11:33:47;;;;;;;59.10;8.67;;;;;;;31.82;28.07;99852.91;124326;1099;101806;-76
2022/08/26 11:36:58;;;;;;;52.47;9.77;;;;;;;31.69;28.07;99846.50;124317;1099;104242;-76
2022/08/26 11:39:36;;;;;;;58.53;10.17;;;;;;;31.58;27.98;99852.59;124574;1099;104184;-77
2022/08/26 11:42:26;;;;;;;62.13;10.63;;;;;;;31.53;28.14;99852.88;124339;1099;102825;-76
2022/08/26 11:45:00;;;;;;;46.03;8.47;;;;;;;31.58;28.15;99841.75;124914;1099;102255;-76
2022/08/26 11:47:34;;;;;;;53.53;9.50;;;;;;;31.60;28.24;99847.08;124302;1099;104361;-76
2022/08/26 11:50:18;;;;;;;46.07;9.80;;;;;;;31.62;28.18;99834.28;124310;1099;104227;-76
2022/08/26 11:52:55;;;;;;;48.10;9.33;;;;;;;31.66;28.05;99838.56;124310;1099;102123;-77
2022/08/26 11:55:33;;;;;;;58.27;9.10;;;;;;;31.79;28.22;99842.26;124335;1099;104288;-76
2022/08/26 11:58:13;;;;;;;44.10;9.10;;;;;;;31.93;28.38;99846.81;124957;1099;102030;-76
2022/08/26 12:00:57;;;;;;;52.50;13.07;;;;;;;32.00;28.14;99842.71;124213;1102;102239;-76